createdAt,value
2022-08-26T00:02:01.673Z,12.10
2022-08-26T00:04:31.415Z,13.20
2022-08-26T00:07:01.832Z,13.03
2022-08-26T00:09:31.115Z,12.77
2022-08-26T00:11:59.885Z,13.57
2022-08-26T00:14:31.213Z,13.60
2022-08-26T00:17:00.542Z,12.60
2022-08-26T00:19:29.689Z,15.40
2022-08-26T00:21:58.761Z,13.97
2022-08-26T00:24:30.629Z,13.83
2022-08-26T00:27:00.012Z,14.17
2022-08-26T00:29:30.559Z,14.77
2022-08-26T00:32:04.131Z,15.33
2022-08-26T00:34:33.362Z,15.47
2022-08-26T00:37:02.555Z,15.70
2022-08-26T00:39:33.602Z,14.90
2022-08-26T00:42:02.671Z,14.60
2022-08-26T00:44:31.541Z,15.00
2022-08-26T00:47:04.384Z,15.27
2022-08-26T00:49:38.975Z,16.20
2022-08-26T00:52:13.162Z,14.00
2022-08-26T00:54:47.088Z,13.47
2022-08-26T00:57:18.787Z,13.80
2022-08-26T00:59:51.370Z,13.20
2022-08-26T01:02:21.459Z,12.73
2022-08-26T01:04:55.507Z,13.60
2022-08-26T01:07:27.637Z,12.50
2022-08-26T01:10:01.660Z,12.10
2022-08-26T01:12:33.185Z,12.47
2022-08-26T01:15:02.588Z,12.43
2022-08-26T01:17:31.558Z,10.87
2022-08-26T01:20:06.431Z,11.80
2022-08-26T01:22:46.080Z,12.20
2022-08-26T01:25:15.914Z,11.90
2022-08-26T01:27:59.019Z,11.17
2022-08-26T01:30:29.023Z,11.03
2022-08-26T01:33:00.001Z,11.60
2022-08-26T01:35:29.570Z,11.23
2022-08-26T01:38:00.738Z,11.83
2022-08-26T01:40:37.092Z,12.03
2022-08-26T01:43:09.373Z,11.63
2022-08-26T01:45:39.133Z,11.70
2022-08-26T01:48:11.713Z,11.50
2022-08-26T01:50:40.817Z,13.63
2022-08-26T01:53:14.251Z,13.43
2022-08-26T01:55:47.658Z,12.43
2022-08-26T01:58:24.251Z,13.53
2022-08-26T02:00:53.572Z,13.27
2022-08-26T02:03:22.662Z,13.20
2022-08-26T02:05:54.930Z,14.77
2022-08-26T02:08:28.156Z,14.13
2022-08-26T02:10:57.212Z,14.53
2022-08-26T02:13:30.186Z,15.40
2022-08-26T02:16:00.893Z,16.57
2022-08-26T02:18:30.457Z,15.23
2022-08-26T02:20:59.072Z,16.93
2022-08-26T02:23:29.983Z,16.20
2022-08-26T02:26:04.792Z,17.73
2022-08-26T02:28:37.945Z,17.27
2022-08-26T02:31:07.251Z,16.80
2022-08-26T02:33:37.019Z,16.67
2022-08-26T02:36:13.481Z,18.57
2022-08-26T02:38:45.655Z,17.37
2022-08-26T02:41:15.363Z,18.23
2022-08-26T02:43:47.194Z,17.47
2022-08-26T02:46:21.426Z,18.20
2022-08-26T02:48:57.022Z,18.83
2022-08-26T02:51:26.867Z,19.40
2022-08-26T02:53:57.036Z,19.23
2022-08-26T02:56:25.839Z,20.53
2022-08-26T02:58:56.306Z,18.87
2022-08-26T03:01:26.375Z,21.03
2022-08-26T03:04:02.911Z,20.07
2022-08-26T03:06:32.143Z,21.13
2022-08-26T03:09:02.964Z,20.80
2022-08-26T03:11:33.182Z,20.17
2022-08-26T03:14:03.542Z,19.50
2022-08-26T03:16:33.916Z,20.57
2022-08-26T03:19:03.131Z,19.27
2022-08-26T03:21:32.796Z,19.37
2022-08-26T03:24:03.064Z,20.43
2022-08-26T03:26:31.721Z,22.37
2022-08-26T03:29:18.184Z,20.07
2022-08-26T03:31:47.087Z,20.00
2022-08-26T03:34:15.805Z,21.40
2022-08-26T03:36:45.561Z,20.70
2022-08-26T03:39:16.662Z,21.13
2022-08-26T03:41:46.316Z,22.17
2022-08-26T03:44:15.578Z,21.87
2022-08-26T03:46:47.062Z,21.97
2022-08-26T03:49:17.135Z,22.33
2022-08-26T03:51:45.937Z,21.27
2022-08-26T03:54:16.072Z,21.87
2022-08-26T03:56:46.583Z,23.47
2022-08-26T03:59:15.424Z,22.83
2022-08-26T04:01:44.596Z,22.43
2022-08-26T04:04:15.623Z,22.87
2022-08-26T04:06:45.122Z,22.63
2022-08-26T04:09:17.650Z,24.27
2022-08-26T04:11:50.614Z,25.70
2022-08-26T04:14:21.453Z,24.00
2022-08-26T04:16:50.596Z,24.97
2022-08-26T04:19:20.230Z,24.73
2022-08-26T04:21:51.176Z,24.63
2022-08-26T04:24:23.274Z,24.63
2022-08-26T04:26:52.224Z,25.37
2022-08-26T04:29:24.030Z,25.50
2022-08-26T04:31:55.445Z,27.33
2022-08-26T04:34:28.530Z,26.57
2022-08-26T04:36:58.003Z,28.17
2022-08-26T04:39:29.285Z,25.27
2022-08-26T04:41:58.666Z,25.97
2022-08-26T04:44:29.774Z,24.80
2022-08-26T04:46:59.212Z,24.50
2022-08-26T04:49:28.065Z,25.67
2022-08-26T04:52:05.122Z,25.03
2022-08-26T04:54:35.476Z,25.87
2022-08-26T04:57:04.134Z,24.23
2022-08-26T04:59:38.488Z,25.90
2022-08-26T05:02:08.537Z,25.97
2022-08-26T05:04:38.265Z,22.40
2022-08-26T05:07:09.560Z,25.03
2022-08-26T05:09:40.898Z,25.40
2022-08-26T05:12:09.939Z,24.57
2022-08-26T05:14:39.423Z,25.40
2022-08-26T05:17:08.660Z,25.60
2022-08-26T05:19:38.501Z,25.83
2022-08-26T05:22:13.108Z,25.33
2022-08-26T05:24:43.648Z,24.83
2022-08-26T05:27:13.107Z,23.63
2022-08-26T05:29:42.615Z,25.07
2022-08-26T05:32:13.190Z,25.53
2022-08-26T05:34:42.953Z,22.97
2022-08-26T05:37:13.791Z,22.73
2022-08-26T05:39:51.145Z,23.43
2022-08-26T05:42:21.659Z,23.17
2022-08-26T05:44:55.969Z,22.13
2022-08-26T05:47:25.406Z,21.60
2022-08-26T05:49:55.501Z,24.03
2022-08-26T05:52:25.858Z,22.70
2022-08-26T05:54:56.780Z,21.67
2022-08-26T05:57:25.472Z,22.27
2022-08-26T05:59:54.733Z,23.87
2022-08-26T06:02:23.544Z,22.43
2022-08-26T06:04:52.184Z,23.17
2022-08-26T06:07:42.350Z,22.20
2022-08-26T06:10:31.619Z,23.73
2022-08-26T06:13:09.209Z,22.70
2022-08-26T06:15:45.752Z,21.70
2022-08-26T06:18:15.710Z,21.63
2022-08-26T06:20:57.407Z,21.63
2022-08-26T06:23:46.865Z,21.23
2022-08-26T06:26:17.765Z,21.23
2022-08-26T06:28:46.802Z,19.50
2022-08-26T06:31:16.796Z,20.37
2022-08-26T06:33:46.036Z,19.70
2022-08-26T06:36:19.526Z,20.17
2022-08-26T06:38:48.958Z,19.17
2022-08-26T06:41:21.156Z,19.20
2022-08-26T06:43:50.711Z,18.07
2022-08-26T06:46:21.729Z,17.77
2022-08-26T06:48:51.044Z,17.30
2022-08-26T06:51:23.557Z,17.67
2022-08-26T06:53:53.849Z,17.20
2022-08-26T06:56:25.858Z,17.37
2022-08-26T06:58:54.818Z,16.80
2022-08-26T07:01:26.357Z,17.43
2022-08-26T07:03:57.210Z,17.53
2022-08-26T07:06:26.428Z,17.13
2022-08-26T07:08:56.759Z,16.53
2022-08-26T07:11:27.073Z,17.57
2022-08-26T07:13:58.395Z,17.40
2022-08-26T07:16:27.884Z,16.37
2022-08-26T07:18:58.621Z,17.57
2022-08-26T07:21:27.644Z,16.90
2022-08-26T07:24:01.214Z,17.10
2022-08-26T07:26:32.616Z,17.43
2022-08-26T07:29:01.809Z,16.67
2022-08-26T07:31:39.246Z,17.40
2022-08-26T07:34:09.534Z,17.20
2022-08-26T07:36:38.408Z,17.00
2022-08-26T07:39:07.735Z,17.50
2022-08-26T07:41:37.820Z,15.63
2022-08-26T07:44:08.878Z,19.00
2022-08-26T07:46:38.762Z,17.83
2022-08-26T07:49:07.831Z,16.63
2022-08-26T07:51:37.954Z,16.53
2022-08-26T07:54:07.745Z,18.17
2022-08-26T07:56:37.581Z,16.73
2022-08-26T07:59:13.695Z,16.67
2022-08-26T08:01:45.098Z,17.27
2022-08-26T08:04:14.430Z,15.53
2022-08-26T08:06:43.940Z,16.40
2022-08-26T08:09:13.623Z,17.43
2022-08-26T08:11:43.617Z,17.33
2022-08-26T08:14:13.985Z,15.53
2022-08-26T08:16:47.045Z,14.00
2022-08-26T08:19:20.082Z,15.47
2022-08-26T08:21:50.208Z,15.10
2022-08-26T08:24:20.363Z,14.77
2022-08-26T08:26:50.880Z,14.20
2022-08-26T08:29:19.541Z,16.03
2022-08-26T08:31:58.293Z,14.70
2022-08-26T08:34:29.259Z,13.93
2022-08-26T08:36:58.750Z,13.03
2022-08-26T08:39:28.603Z,13.50
2022-08-26T08:42:42.321Z,12.40
2022-08-26T08:45:16.886Z,13.37
2022-08-26T08:47:50.512Z,12.67
2022-08-26T08:50:25.941Z,12.47
2022-08-26T08:53:00.471Z,11.53
2022-08-26T08:55:34.691Z,12.27
2022-08-26T08:58:08.087Z,12.80
2022-08-26T09:00:44.289Z,12.23
2022-08-26T09:03:33.194Z,12.37
2022-08-26T09:06:02.632Z,10.23
2022-08-26T09:08:35.834Z,10.50
2022-08-26T09:11:05.413Z,11.57
2022-08-26T09:13:35.816Z,11.93
2022-08-26T09:16:11.503Z,10.20
2022-08-26T09:18:51.183Z,11.00
2022-08-26T09:21:21.961Z,10.30
2022-08-26T09:23:52.920Z,10.60
2022-08-26T09:26:29.195Z,12.30
2022-08-26T09:28:59.617Z,10.17
2022-08-26T09:31:31.781Z,11.97
2022-08-26T09:34:17.516Z,11.30
2022-08-26T09:36:47.453Z,10.83
2022-08-26T09:39:35.095Z,10.50
2022-08-26T09:42:09.995Z,10.43
2022-08-26T09:44:54.662Z,10.23
2022-08-26T09:47:30.219Z,11.53
2022-08-26T09:50:09.673Z,11.17
2022-08-26T09:52:40.518Z,10.80
2022-08-26T09:55:16.221Z,10.47
2022-08-26T09:57:51.121Z,10.63
2022-08-26T10:00:27.265Z,10.00
2022-08-26T10:02:58.951Z,10.10
2022-08-26T10:05:38.579Z,10.07
2022-08-26T10:08:26.703Z,10.17
2022-08-26T10:10:57.682Z,10.00
2022-08-26T10:13:33.671Z,9.60
2022-08-26T10:16:10.697Z,10.17
2022-08-26T10:18:44.589Z,10.50
2022-08-26T10:21:18.051Z,9.80
2022-08-26T10:23:49.532Z,10.13
2022-08-26T10:26:24.146Z,10.07
2022-08-26T10:28:58.009Z,10.20
2022-08-26T10:31:30.450Z,10.77
2022-08-26T10:34:10.355Z,9.17
2022-08-26T10:37:15.647Z,10.17
2022-08-26T10:39:43.149Z,9.83
2022-08-26T10:42:18.100Z,9.80
2022-08-26T10:44:50.948Z,10.47
2022-08-26T10:47:22.197Z,9.33
2022-08-26T10:50:00.000Z,9.47
2022-08-26T10:52:39.530Z,9.60
2022-08-26T10:55:13.946Z,9.80
2022-08-26T10:57:47.851Z,9.63
2022-08-26T11:00:36.519Z,9.10
2022-08-26T11:03:09.466Z,9.70
2022-08-26T11:06:17.697Z,10.47
2022-08-26T11:08:50.827Z,10.80
2022-08-26T11:11:46.720Z,12.50
2022-08-26T11:14:53.188Z,10.80
2022-08-26T11:17:56.951Z,11.50
2022-08-26T11:20:42.269Z,10.83
2022-08-26T11:23:50.420Z,10.27
2022-08-26T11:26:36.001Z,10.90
2022-08-26T11:29:13.525Z,11.17
2022-08-26T11:31:57.508Z,10.67
2022-08-26T11:34:56.699Z,10.37
2022-08-26T11:37:32.323Z,10.20
2022-08-26T11:40:05.026Z,11.43
2022-08-26T11:42:38.131Z,10.93
2022-08-26T11:45:19.400Z,10.47
2022-08-26T11:47:49.376Z,10.97
2022-08-26T11:50:23.345Z,11.30
2022-08-26T11:52:53.460Z,11.90
2022-08-26T11:55:24.227Z,10.77
2022-08-26T11:57:56.182Z,11.50
2022-08-26T12:00:27.188Z,11.90
2022-08-26T12:02:56.346Z,11.60
2022-08-26T12:05:31.181Z,11.50
2022-08-26T12:08:04.906Z,11.27
2022-08-26T12:10:37.392Z,11.80
2022-08-26T12:13:07.893Z,12.20
2022-08-26T12:15:37.324Z,11.03
2022-08-26T12:18:20.611Z,11.93
2022-08-26T12:20:59.803Z,12.13
2022-08-26T12:23:40.095Z,9.97
2022-08-26T12:26:13.143Z,10.70
2022-08-26T12:28:46.530Z,12.70
2022-08-26T12:31:22.758Z,11.10
2022-08-26T12:33:52.608Z,12.10
2022-08-26T12:36:25.629Z,11.67
2022-08-26T12:38:57.697Z,11.47
2022-08-26T12:41:47.621Z,11.47
2022-08-26T12:44:34.720Z,11.90
2022-08-26T12:47:06.582Z,11.73
2022-08-26T12:49:35.219Z,11.23
2022-08-26T12:52:03.937Z,11.37
2022-08-26T12:54:46.997Z,11.33
2022-08-26T12:57:17.287Z,11.43
2022-08-26T12:59:46.052Z,12.20
2022-08-26T13:02:35.864Z,11.03
2022-08-26T13:05:05.546Z,11.63
2022-08-26T13:07:34.583Z,12.17
2022-08-26T13:10:03.395Z,11.63
2022-08-26T13:12:37.422Z,8.53
2022-08-26T13:15:07.802Z,9.93
2022-08-26T13:17:36.478Z,10.43
2022-08-26T13:20:06.436Z,8.80
2022-08-26T13:22:35.250Z,7.00
2022-08-26T13:25:03.692Z,5.70
2022-08-26T13:27:33.499Z,5.53
2022-08-26T13:30:02.339Z,5.93
2022-08-26T13:32:31.910Z,5.40
2022-08-26T13:35:00.441Z,5.40
2022-08-26T13:37:35.690Z,5.47
2022-08-26T13:40:06.912Z,4.97
2022-08-26T13:42:37.150Z,5.30
2022-08-26T13:45:18.838Z,5.70
2022-08-26T13:47:47.776Z,9.17
2022-08-26T13:50:16.683Z,8.53
2022-08-26T13:52:45.477Z,11.37
2022-08-26T13:55:14.860Z,12.20
2022-08-26T13:57:44.920Z,9.97
2022-08-26T14:00:15.130Z,10.70
2022-08-26T14:02:44.064Z,12.40
2022-08-26T14:05:13.435Z,12.50
2022-08-26T14:07:42.369Z,14.63
2022-08-26T14:10:12.113Z,15.00
2022-08-26T14:12:41.395Z,16.40
2022-08-26T14:15:16.292Z,14.60
2022-08-26T14:18:02.089Z,13.37
2022-08-26T14:20:31.932Z,12.87
2022-08-26T14:23:20.836Z,11.70
2022-08-26T14:25:49.815Z,11.00
2022-08-26T14:28:19.112Z,9.87
2022-08-26T14:30:52.641Z,9.43
2022-08-26T14:33:24.507Z,10.40
2022-08-26T14:35:53.552Z,10.83
2022-08-26T14:38:22.077Z,10.70
2022-08-26T14:40:50.902Z,10.57
2022-08-26T14:43:19.808Z,8.63
2022-08-26T14:45:49.677Z,8.63
2022-08-26T14:48:19.326Z,10.23
2022-08-26T14:50:47.998Z,10.17
2022-08-26T14:53:34.408Z,9.60
2022-08-26T14:56:03.868Z,9.93
2022-08-26T14:58:34.949Z,12.87
2022-08-26T15:01:06.970Z,10.97
2022-08-26T15:03:35.683Z,10.47
2022-08-26T15:06:04.258Z,12.03
2022-08-26T15:08:36.511Z,10.77
2022-08-26T15:11:05.391Z,11.77
2022-08-26T15:13:34.147Z,12.20
2022-08-26T15:16:04.743Z,12.50
2022-08-26T15:18:33.284Z,12.63
2022-08-26T15:21:03.945Z,13.60
2022-08-26T15:23:32.866Z,13.63
2022-08-26T15:26:01.732Z,15.13
2022-08-26T15:28:30.794Z,15.10
2022-08-26T15:31:00.647Z,14.10
2022-08-26T15:33:30.844Z,14.07
2022-08-26T15:36:00.723Z,16.07
2022-08-26T15:38:31.776Z,15.90
2022-08-26T15:41:03.168Z,16.87
2022-08-26T15:43:32.244Z,16.87
2022-08-26T15:46:01.211Z,16.37
2022-08-26T15:48:31.243Z,17.70
2022-08-26T15:51:03.093Z,16.13
2022-08-26T15:53:33.867Z,16.83
2022-08-26T15:56:03.646Z,15.77
2022-08-26T15:58:32.337Z,16.77
2022-08-26T16:01:01.924Z,18.10
2022-08-26T16:03:32.294Z,19.67
2022-08-26T16:06:01.264Z,20.17
2022-08-26T16:08:30.392Z,19.87
2022-08-26T16:11:06.143Z,19.10
2022-08-26T16:13:39.698Z,20.20
2022-08-26T16:16:09.931Z,20.17
2022-08-26T16:18:41.145Z,23.03
2022-08-26T16:21:13.525Z,20.80
2022-08-26T16:23:45.344Z,19.13
2022-08-26T16:26:15.809Z,25.00
2022-08-26T16:28:44.612Z,20.60
2022-08-26T16:31:13.899Z,19.77
2022-08-26T16:33:45.078Z,19.53
2022-08-26T16:36:14.455Z,19.60
2022-08-26T16:38:43.510Z,18.40
2022-08-26T16:41:12.108Z,15.97
2022-08-26T16:43:40.763Z,19.63
2022-08-26T16:46:11.445Z,21.93
2022-08-26T16:48:40.131Z,22.27
2022-08-26T16:51:16.400Z,22.40
2022-08-26T16:53:45.727Z,23.37
2022-08-26T16:56:14.492Z,22.07
2022-08-26T16:58:43.526Z,20.33
2022-08-26T17:01:12.444Z,20.77
2022-08-26T17:03:41.011Z,20.97
2022-08-26T17:06:10.788Z,20.53
2022-08-26T17:08:42.272Z,22.17
2022-08-26T17:11:11.363Z,21.47
2022-08-26T17:13:39.967Z,22.27
2022-08-26T17:16:11.232Z,21.83
2022-08-26T17:18:40.019Z,21.80
2022-08-26T17:21:11.188Z,20.40
2022-08-26T17:23:42.560Z,17.73
2022-08-26T17:26:12.156Z,19.90
2022-08-26T17:28:41.484Z,21.17
2022-08-26T17:31:11.646Z,19.37
2022-08-26T17:33:40.622Z,20.40
2022-08-26T17:36:10.058Z,18.03
2022-08-26T17:38:40.849Z,20.33
2022-08-26T17:41:10.193Z,18.20
2022-08-26T17:43:39.209Z,20.27
2022-08-26T17:46:09.922Z,21.80
2022-08-26T17:48:39.877Z,21.57
2022-08-26T17:51:10.129Z,22.43
2022-08-26T17:53:41.310Z,22.67
2022-08-26T17:56:10.851Z,22.47
2022-08-26T17:58:39.743Z,23.83
2022-08-26T18:01:08.579Z,22.90
2022-08-26T18:03:37.308Z,23.03
2022-08-26T18:06:09.977Z,22.93
2022-08-26T18:08:40.499Z,22.63
2022-08-26T18:11:10.499Z,24.90
2022-08-26T18:13:47.043Z,23.73
2022-08-26T18:16:17.680Z,22.80
2022-08-26T18:18:47.648Z,23.37
2022-08-26T18:21:18.192Z,22.97
2022-08-26T18:23:48.611Z,22.97
2022-08-26T18:26:18.917Z,23.03
2022-08-26T18:29:07.310Z,24.90
2022-08-26T18:31:36.263Z,23.87
2022-08-26T18:34:04.885Z,25.33
2022-08-26T18:36:35.745Z,26.07
2022-08-26T18:39:07.097Z,25.07
2022-08-26T18:41:41.579Z,24.70
2022-08-26T18:44:13.674Z,23.27
2022-08-26T18:46:43.066Z,23.60
2022-08-26T18:49:12.617Z,25.57
2022-08-26T18:51:42.451Z,26.53
2022-08-26T18:54:13.271Z,24.97
2022-08-26T18:56:43.742Z,26.00
2022-08-26T18:59:14.005Z,28.07
2022-08-26T19:01:43.452Z,30.23
2022-08-26T19:04:15.401Z,30.23
2022-08-26T19:06:46.575Z,28.93
2022-08-26T19:09:17.867Z,28.83
2022-08-26T19:11:49.781Z,30.23
2022-08-26T19:14:19.444Z,30.23
2022-08-26T19:16:50.076Z,29.10
2022-08-26T19:19:19.488Z,28.90
2022-08-26T19:21:48.857Z,29.10
2022-08-26T19:24:19.958Z,30.23
2022-08-26T19:26:51.370Z,31.23
2022-08-26T19:29:27.425Z,29.17
2022-08-26T19:31:56.498Z,30.60
2022-08-26T19:34:25.035Z,29.87
2022-08-26T19:36:54.684Z,29.87
2022-08-26T19:39:25.237Z,30.37
2022-08-26T19:41:54.446Z,31.37
2022-08-26T19:44:41.989Z,31.17
2022-08-26T19:47:11.893Z,31.90
2022-08-26T19:49:41.186Z,34.57
2022-08-26T19:52:11.091Z,34.57
2022-08-26T19:54:41.791Z,34.17
2022-08-26T19:57:11.641Z,33.67
2022-08-26T19:59:40.530Z,32.53
2022-08-26T20:02:11.294Z,34.10
2022-08-26T20:04:40.335Z,31.53
2022-08-26T20:07:12.030Z,29.10
2022-08-26T20:09:42.929Z,28.50
2022-08-26T20:12:11.688Z,28.00
2022-08-26T20:14:40.599Z,28.07
2022-08-26T20:17:09.481Z,29.47
2022-08-26T20:19:56.182Z,27.97
2022-08-26T20:22:25.705Z,28.03
2022-08-26T20:24:55.750Z,30.00
2022-08-26T20:27:38.069Z,27.47
2022-08-26T20:30:09.449Z,27.77
2022-08-26T20:32:39.445Z,27.20
2022-08-26T20:35:11.692Z,25.83
2022-08-26T20:37:40.555Z,25.07
2022-08-26T20:40:13.665Z,26.97
2022-08-26T20:42:42.657Z,26.90
2022-08-26T20:45:12.016Z,26.73
2022-08-26T20:47:43.762Z,26.57
2022-08-26T20:50:12.439Z,27.53
2022-08-26T20:52:41.030Z,27.03
2022-08-26T20:55:11.826Z,30.10
2022-08-26T20:57:43.243Z,27.87
2022-08-26T21:00:14.151Z,28.07
2022-08-26T21:02:44.020Z,28.33
2022-08-26T21:05:12.618Z,28.50
2022-08-26T21:07:41.054Z,27.60
2022-08-26T21:10:12.240Z,27.00
2022-08-26T21:12:40.704Z,27.00
2022-08-26T21:15:10.675Z,29.07
2022-08-26T21:17:39.292Z,26.00
2022-08-26T21:20:09.107Z,26.47
2022-08-26T21:22:37.902Z,27.10
2022-08-26T21:25:07.467Z,29.47
2022-08-26T21:27:39.025Z,28.93
2022-08-26T21:30:09.123Z,28.77
2022-08-26T21:32:37.897Z,28.40
2022-08-26T21:35:07.163Z,28.87
2022-08-26T21:37:36.044Z,28.30
2022-08-26T21:40:06.027Z,26.97
2022-08-26T21:42:35.957Z,28.43
2022-08-26T21:45:08.010Z,24.53
2022-08-26T21:47:36.706Z,25.53
2022-08-26T21:50:06.445Z,27.37
2022-08-26T21:52:35.305Z,27.23
2022-08-26T21:55:04.937Z,26.67
2022-08-26T21:57:38.145Z,26.33
2022-08-26T22:00:10.849Z,26.17
2022-08-26T22:02:39.763Z,26.97
2022-08-26T22:05:09.072Z,25.73
2022-08-26T22:07:38.140Z,27.00
2022-08-26T22:10:08.414Z,27.83
2022-08-26T22:12:38.541Z,26.30
2022-08-26T22:15:10.529Z,27.13
2022-08-26T22:17:39.476Z,26.00
2022-08-26T22:20:16.651Z,26.10
2022-08-26T22:22:45.948Z,25.43
2022-08-26T22:25:15.042Z,27.53
2022-08-26T22:27:43.601Z,25.13
2022-08-26T22:30:14.681Z,25.80
2022-08-26T22:32:44.107Z,26.77
2022-08-26T22:35:28.298Z,25.97
2022-08-26T22:37:58.949Z,25.47
2022-08-26T22:40:27.594Z,26.20
2022-08-26T22:42:58.030Z,27.40
2022-08-26T22:45:31.428Z,27.83
2022-08-26T22:48:01.554Z,26.37
2022-08-26T22:50:30.634Z,22.50
2022-08-26T22:52:59.644Z,22.90
2022-08-26T22:55:29.017Z,21.97
2022-08-26T22:57:58.130Z,24.10
2022-08-26T23:00:32.193Z,22.10
2022-08-26T23:03:04.379Z,20.40
2022-08-26T23:05:33.294Z,20.10
2022-08-26T23:08:03.151Z,20.33
2022-08-26T23:10:32.766Z,21.80
2022-08-26T23:13:03.799Z,19.93
2022-08-26T23:15:33.624Z,19.73
2022-08-26T23:18:03.759Z,19.97
2022-08-26T23:20:33.775Z,20.13
2022-08-26T23:23:03.321Z,20.47
2022-08-26T23:25:33.493Z,19.03
2022-08-26T23:28:03.452Z,20.93
2022-08-26T23:30:33.126Z,18.27
2022-08-26T23:33:03.080Z,17.37
2022-08-26T23:35:31.254Z,19.03
2022-08-26T23:38:01.075Z,19.50
2022-08-26T23:40:33.171Z,18.53
2022-08-26T23:43:03.593Z,18.20
2022-08-26T23:45:33.473Z,19.90
2022-08-26T23:48:03.498Z,19.50
2022-08-26T23:50:46.770Z,17.30
2022-08-26T23:53:19.590Z,17.43
2022-08-26T23:55:49.703Z,17.90
2022-08-26T23:58:19.198Z,19.27
